createdAt,value
2023-02-11T00:00:44.804Z,99413.09
2023-02-11T00:03:11.934Z,99403.94
2023-02-11T00:05:38.990Z,99413.50
2023-02-11T00:08:06.112Z,99408.94
2023-02-11T00:10:33.233Z,99416.25
2023-02-11T00:13:00.280Z,99414.91
2023-02-11T00:15:27.228Z,99415.63
2023-02-11T00:17:54.316Z,99418.75
2023-02-11T00:20:21.258Z,99417.44
2023-02-11T00:22:48.323Z,99417.91
2023-02-11T00:25:15.394Z,99410.13
2023-02-11T00:27:42.409Z,99415.41
2023-02-11T00:30:10.890Z,99418.03
2023-02-11T00:32:38.710Z,99412.03
2023-02-11T00:35:05.995Z,99416.59
2023-02-11T00:37:36.530Z,99422.31
2023-02-11T00:40:06.946Z,99417.53
2023-02-11T00:42:35.744Z,99423.72
2023-02-11T00:45:02.870Z,99429.72
2023-02-11T00:47:31.345Z,99423.50
2023-02-11T00:50:01.049Z,99430.31
2023-02-11T00:52:33.994Z,99446.28
2023-02-11T00:55:01.115Z,99435.41
2023-02-11T00:57:28.169Z,99439.59
2023-02-11T00:59:55.335Z,99435.63
2023-02-11T01:02:22.624Z,99446.66
2023-02-11T01:04:49.704Z,99440.75
2023-02-11T02:00:43.817Z,99473.00
2023-02-11T02:03:17.939Z,99461.41
2023-02-11T02:06:03.428Z,99460.38
2023-02-11T02:08:33.088Z,99460.66
2023-02-11T02:11:03.160Z,99450.19
2023-02-11T02:13:33.520Z,99450.22
2023-02-11T02:16:22.434Z,99451.06
2023-02-11T02:19:10.514Z,99454.56
2023-02-11T02:22:02.081Z,99450.28
2023-02-11T02:24:56.913Z,99463.91
2023-02-11T02:27:32.733Z,99462.38
2023-02-11T02:30:29.818Z,99463.47
2023-02-11T02:33:29.235Z,99468.34
2023-02-11T02:36:21.419Z,99467.28
2023-02-11T02:38:54.242Z,99473.03
2023-02-11T02:41:30.121Z,99476.13
2023-02-11T02:43:57.533Z,99470.88
2023-02-11T02:46:28.418Z,99468.47
2023-02-11T02:48:56.975Z,99464.28
2023-02-11T02:51:42.843Z,99466.09
2023-02-11T02:54:31.250Z,99471.94
2023-02-11T02:57:23.536Z,99462.03
2023-02-11T03:00:09.124Z,99464.53
2023-02-11T03:02:54.406Z,99461.66
2023-02-11T03:05:34.377Z,99454.47
2023-02-11T03:08:33.534Z,99453.03
2023-02-11T03:11:03.570Z,99457.94
2023-02-11T03:13:34.239Z,99456.75
2023-02-11T03:16:09.000Z,99456.53
2023-02-11T03:18:38.950Z,99461.31
2023-02-11T03:21:09.535Z,99457.47
2023-02-11T03:23:45.027Z,99462.28
2023-02-11T03:26:21.714Z,99457.47
2023-02-11T03:28:57.011Z,99452.69
2023-02-11T03:31:49.955Z,99450.56
2023-02-11T03:34:33.599Z,99445.53
2023-02-11T03:37:11.998Z,99440.75
2023-02-11T03:39:44.613Z,99442.78
2023-02-11T03:42:14.688Z,99445.66
2023-02-11T03:44:50.221Z,99440.88
2023-02-11T03:47:21.489Z,99449.69
2023-02-11T03:49:52.090Z,99439.28
2023-02-11T03:52:21.834Z,99441.53
2023-02-11T03:54:53.706Z,99444.75
2023-02-11T03:57:20.838Z,99438.53
2023-02-11T03:59:51.687Z,99431.59
2023-02-11T04:02:19.473Z,99425.22
2023-02-11T04:04:47.401Z,99430.38
2023-02-11T04:07:14.405Z,99424.16
2023-02-11T04:09:41.503Z,99434.66
2023-02-11T04:12:08.541Z,99438.22
2023-02-11T04:14:35.822Z,99430.19
2023-02-11T04:17:03.478Z,99427.19
2023-02-11T04:19:30.623Z,99434.59
2023-02-11T04:21:57.867Z,99433.03
2023-02-11T04:24:25.250Z,99431.25
2023-02-11T04:26:52.752Z,99426.22
2023-02-11T04:29:20.267Z,99419.41
2023-02-11T04:31:47.701Z,99419.38
2023-02-11T04:34:15.254Z,99424.03
2023-02-11T04:36:42.383Z,99424.84
2023-02-11T04:39:09.515Z,99419.78
2023-02-11T04:41:36.541Z,99425.53
2023-02-11T04:44:04.150Z,99425.91
2023-02-11T04:46:31.234Z,99414.06
2023-02-11T04:48:58.418Z,99423.00
2023-02-11T04:51:26.064Z,99425.41
2023-02-11T04:53:53.160Z,99434.69
2023-02-11T04:56:20.150Z,99424.84
2023-02-11T04:58:47.167Z,99431.16
2023-02-11T05:01:16.460Z,99430.00
2023-02-11T05:03:43.796Z,99430.41
2023-02-11T05:06:11.624Z,99424.78
2023-02-11T05:08:39.394Z,99430.41
2023-02-11T05:11:06.449Z,99439.72
2023-02-11T05:13:33.729Z,99425.91
2023-02-11T05:16:00.760Z,99432.34
2023-02-11T05:18:27.899Z,99433.56
2023-02-11T05:20:54.911Z,99428.81
2023-02-11T05:23:21.920Z,99428.03
2023-02-11T05:25:49.366Z,99427.94
2023-02-11T05:28:16.569Z,99433.75
2023-02-11T05:30:43.880Z,99421.06
2023-02-11T05:33:10.991Z,99430.41
2023-02-11T05:35:38.068Z,99434.00
2023-02-11T05:38:05.023Z,99427.31
2023-02-11T05:40:32.525Z,99425.44
2023-02-11T05:42:59.590Z,99425.41
2023-02-11T05:45:26.704Z,99429.16
2023-02-11T05:47:53.765Z,99438.72
2023-02-11T05:50:21.135Z,99427.84
2023-02-11T05:52:52.270Z,99429.50
2023-02-11T05:55:19.555Z,99437.03
2023-02-11T05:57:46.567Z,99434.88
2023-02-11T06:00:14.353Z,99435.47
2023-02-11T06:02:41.463Z,99437.63
2023-02-11T06:05:08.849Z,99425.91
2023-02-11T06:07:35.977Z,99433.56
2023-02-11T06:10:03.086Z,99438.34
2023-02-11T06:12:30.312Z,99439.31
2023-02-11T06:14:57.339Z,99428.78
2023-02-11T06:17:25.565Z,99434.66
2023-02-11T06:19:52.645Z,99426.63
2023-02-11T06:22:19.598Z,99425.53
2023-02-11T06:25:00.943Z,99435.47
2023-02-11T06:27:30.873Z,99422.31
2023-02-11T06:29:57.918Z,99428.31
2023-02-11T06:32:42.733Z,99427.69
2023-02-11T06:35:12.079Z,99429.50
2023-02-11T06:37:40.147Z,99425.31
2023-02-11T06:40:07.496Z,99415.63
2023-02-11T06:42:36.336Z,99426.03
2023-02-11T06:45:06.269Z,99410.47
2023-02-11T06:47:33.645Z,99409.06
2023-02-11T06:50:00.690Z,99416.81
2023-02-11T06:52:27.679Z,99415.88
2023-02-11T06:54:54.660Z,99427.81
2023-02-11T06:57:21.684Z,99423.38
2023-02-11T06:59:48.825Z,99414.13
2023-02-11T07:02:16.280Z,99421.66
2023-02-11T07:04:44.192Z,99416.34
2023-02-11T07:07:11.164Z,99414.84
2023-02-11T07:09:38.217Z,99414.47
2023-02-11T07:12:05.314Z,99416.66
2023-02-11T07:14:32.380Z,99412.38
2023-02-11T07:16:59.440Z,99418.22
2023-02-11T07:19:26.583Z,99415.56
2023-02-11T07:21:53.611Z,99413.00
2023-02-11T07:24:20.738Z,99414.75
2023-02-11T07:26:47.669Z,99413.13
2023-02-11T07:29:14.618Z,99414.63
2023-02-11T07:31:41.751Z,99412.13
2023-02-11T07:34:10.861Z,99400.88
2023-02-11T07:36:39.525Z,99400.19
2023-02-11T07:39:06.533Z,99402.56
2023-02-11T07:41:37.694Z,99400.00
2023-02-11T07:44:05.650Z,99402.97
2023-02-11T07:46:34.717Z,99396.00
2023-02-11T07:49:01.978Z,99399.19
2023-02-11T07:51:31.083Z,99393.47
2023-02-11T07:54:00.163Z,99393.91
2023-02-11T07:56:28.653Z,99393.34
2023-02-11T07:58:57.031Z,99396.63
2023-02-11T08:01:28.349Z,99397.66
2023-02-11T08:03:57.950Z,99392.28
2023-02-11T08:06:27.521Z,99376.41
2023-02-11T08:08:54.890Z,99385.50
2023-02-11T08:11:24.747Z,99381.13
2023-02-11T08:13:52.739Z,99386.88
2023-02-11T08:16:29.343Z,99370.31
2023-02-11T08:18:58.567Z,99374.53
2023-02-11T08:21:25.674Z,99369.53
2023-02-11T08:23:53.003Z,99368.25
2023-02-11T08:26:25.904Z,99371.19
2023-02-11T08:28:54.295Z,99359.81
2023-02-11T08:31:24.490Z,99353.97
2023-02-11T08:33:53.465Z,99359.78
2023-02-11T08:36:27.330Z,99356.28
2023-02-11T08:39:05.615Z,99354.31
2023-02-11T08:41:35.973Z,99320.53
2023-02-11T08:44:03.199Z,99350.41
2023-02-11T08:46:30.471Z,99349.84
2023-02-11T08:48:57.588Z,99339.75
2023-02-11T08:51:31.732Z,99337.81
2023-02-11T08:53:59.910Z,99338.09
2023-02-11T08:56:27.482Z,99331.69
2023-02-11T08:58:55.126Z,99325.56
2023-02-11T09:01:27.717Z,99314.28
2023-02-11T09:03:55.254Z,99320.41
2023-02-11T09:06:23.299Z,99302.47
2023-02-11T09:08:53.201Z,99294.16
2023-02-11T09:11:22.621Z,99281.50
2023-02-11T09:13:52.562Z,99277.34
2023-02-11T09:16:24.322Z,99273.59
2023-02-11T09:18:51.681Z,99272.75
2023-02-11T09:21:20.310Z,99258.03
2023-02-11T09:23:48.176Z,99256.47
2023-02-11T09:26:33.304Z,99243.69
2023-02-11T09:29:01.378Z,99245.09
2023-02-11T09:31:30.762Z,99243.53
2023-02-11T09:34:00.688Z,99239.47
2023-02-11T09:36:30.129Z,99232.63
2023-02-11T09:38:59.729Z,99231.81
2023-02-11T09:41:39.439Z,99230.72
2023-02-11T09:44:09.706Z,99220.91
2023-02-11T09:46:42.711Z,99229.44
2023-02-11T09:49:20.095Z,99226.03
2023-02-11T09:51:56.548Z,99226.63
2023-02-11T09:54:55.003Z,99218.41
2023-02-11T09:57:28.805Z,99211.59
2023-02-11T09:59:57.819Z,99210.72
2023-02-11T10:02:38.153Z,99200.75
2023-02-11T10:05:16.773Z,99203.63
2023-02-11T10:07:54.605Z,99193.63
2023-02-11T10:10:30.811Z,99185.88
2023-02-11T10:13:00.773Z,99206.59
2023-02-11T10:15:45.232Z,99196.47
2023-02-11T10:18:30.900Z,99187.97
2023-02-11T10:21:08.971Z,99190.59
2023-02-11T10:23:41.563Z,99176.97
2023-02-11T10:26:19.445Z,99167.31
2023-02-11T10:28:49.927Z,99176.91
2023-02-11T10:31:22.828Z,99158.75
2023-02-11T10:34:02.220Z,99146.34
2023-02-11T10:36:34.216Z,99144.81
2023-02-11T10:39:14.816Z,99128.84
2023-02-11T10:41:48.248Z,99132.00
2023-02-11T10:44:27.825Z,99126.75
2023-02-11T10:46:56.647Z,99117.09
2023-02-11T10:49:37.715Z,99112.41
2023-02-11T10:52:24.726Z,99099.06
2023-02-11T10:55:23.248Z,99092.41
2023-02-11T10:57:55.835Z,99092.41
2023-02-11T11:00:43.433Z,99086.38
2023-02-11T11:03:22.338Z,99080.69
2023-02-11T11:05:58.734Z,99079.56
2023-02-11T11:08:47.791Z,99071.28
2023-02-11T11:11:18.113Z,99075.38
2023-02-11T11:13:54.127Z,99070.41
2023-02-11T11:16:28.806Z,99065.69
2023-02-11T11:19:08.116Z,99059.03
2023-02-11T11:21:44.328Z,99059.47
2023-02-11T11:24:19.201Z,99049.63
2023-02-11T11:26:53.058Z,99035.78
2023-02-11T11:29:31.078Z,99031.34
2023-02-11T11:32:05.515Z,99022.44
2023-02-11T11:34:34.917Z,99011.72
2023-02-11T11:37:11.561Z,99007.72
2023-02-11T11:39:40.132Z,99004.03
2023-02-11T11:42:29.641Z,98996.28
2023-02-11T11:45:25.970Z,98995.38
2023-02-11T11:47:54.785Z,98996.56
2023-02-11T11:50:28.024Z,98984.34
2023-02-11T11:53:34.452Z,98988.69
2023-02-11T11:56:09.425Z,98983.16
2023-02-11T11:58:36.639Z,98978.19
2023-02-11T12:01:27.276Z,98969.44
2023-02-11T12:04:32.910Z,98969.25
2023-02-11T12:07:25.953Z,98972.47
2023-02-11T12:10:08.029Z,98970.22
2023-02-11T12:12:49.310Z,98953.94
2023-02-11T12:15:28.779Z,98959.25
2023-02-11T12:18:04.864Z,98957.16
2023-02-11T12:53:00.373Z,98888.19
2023-02-11T12:55:37.231Z,98879.78
2023-02-11T12:58:06.593Z,98876.75
2023-02-11T13:00:45.650Z,98871.66
2023-02-11T13:03:28.867Z,98868.28
2023-02-11T13:06:02.505Z,98847.69
2023-02-11T13:08:34.121Z,98859.06
2023-02-11T13:11:26.116Z,98839.13
2023-02-11T13:14:13.129Z,98827.88
2023-02-11T13:16:45.244Z,98821.31
2023-02-11T13:19:15.545Z,98823.34
2023-02-11T13:22:01.310Z,98807.34
2023-02-11T13:24:44.447Z,98811.16
2023-02-11T13:27:11.471Z,98801.69
2023-02-11T13:29:58.460Z,98801.69
2023-02-11T13:32:25.433Z,98799.09
2023-02-11T13:34:52.409Z,98781.53
2023-02-11T13:37:24.010Z,98775.03
2023-02-11T13:40:02.921Z,98761.03
2023-02-11T13:42:34.698Z,98762.41
2023-02-11T13:45:02.140Z,98758.31
2023-02-11T13:47:34.075Z,98745.56
2023-02-11T13:50:06.502Z,98740.56
2023-02-11T13:52:38.786Z,98732.84
2023-02-11T13:55:11.854Z,98727.84
2023-02-11T13:57:41.151Z,98719.13
2023-02-11T14:00:28.613Z,98738.38
2023-02-11T14:03:29.427Z,98713.28
2023-02-11T14:06:27.506Z,98709.28
2023-02-11T14:09:10.296Z,98695.41
2023-02-11T14:11:40.978Z,98682.16
2023-02-11T14:14:58.058Z,98687.97
2023-02-11T14:17:32.431Z,98670.91
2023-02-11T14:20:01.752Z,98660.94
2023-02-11T14:22:51.284Z,98648.94
2023-02-11T14:25:24.991Z,98641.44
2023-02-11T14:28:18.010Z,98630.78
2023-02-11T14:31:36.224Z,98628.69
2023-02-11T14:34:33.882Z,98628.44
2023-02-11T14:37:04.051Z,98619.00
2023-02-11T14:39:52.789Z,98622.06
2023-02-11T14:42:22.682Z,98602.44
2023-02-11T14:44:51.607Z,98604.66
2023-02-11T14:47:29.962Z,98599.69
2023-02-11T14:49:57.132Z,98585.31
2023-02-11T14:52:31.706Z,98580.19
2023-02-11T14:55:29.301Z,98563.03
2023-02-11T14:58:30.933Z,98571.19
2023-02-11T15:01:06.713Z,98562.91
2023-02-11T15:03:42.755Z,98564.13
2023-02-11T15:06:20.898Z,98546.59
2023-02-11T15:09:01.056Z,98528.63
2023-02-11T15:11:32.361Z,98524.72
2023-02-11T15:14:08.180Z,98525.00
2023-02-11T15:16:40.513Z,98518.00
2023-02-11T15:19:08.063Z,98517.00
2023-02-11T15:21:36.421Z,98507.59
2023-02-11T15:24:07.181Z,98507.06
2023-02-11T15:26:34.532Z,98504.16
2023-02-11T15:29:01.659Z,98497.94
2023-02-11T15:31:29.846Z,98489.75
2023-02-11T15:34:07.862Z,98492.00
2023-02-11T15:36:36.464Z,98488.94
2023-02-11T15:39:32.797Z,98485.22
2023-02-11T15:42:26.169Z,98486.03
2023-02-11T15:45:16.328Z,98472.50
2023-02-11T15:47:49.977Z,98473.88
2023-02-11T15:50:22.843Z,98466.69
2023-02-11T15:52:50.962Z,98458.69
2023-02-11T15:55:19.023Z,98465.00
2023-02-11T15:57:50.055Z,98459.22
2023-02-11T16:00:21.297Z,98461.28
2023-02-11T16:02:50.948Z,98451.19
2023-02-11T16:05:29.399Z,98463.06
2023-02-11T16:07:57.384Z,98445.69
2023-02-11T16:10:24.403Z,98467.06
2023-02-11T16:12:57.153Z,98441.81
2023-02-11T16:16:12.846Z,98435.53
2023-02-11T16:19:02.021Z,98419.53
2023-02-11T16:21:39.969Z,98434.28
2023-02-11T16:24:24.982Z,98428.22
2023-02-11T16:26:55.713Z,98426.84
2023-02-11T16:29:26.191Z,98405.53
2023-02-11T16:32:04.496Z,98405.44
2023-02-11T16:34:31.657Z,98405.84
2023-02-11T16:36:58.666Z,98406.34
2023-02-11T16:39:25.600Z,98386.28
2023-02-11T16:41:52.686Z,98399.72
2023-02-11T16:44:19.708Z,98383.97
2023-02-11T16:46:46.799Z,98381.72
2023-02-11T16:49:23.265Z,98363.56
2023-02-11T16:51:52.773Z,98369.09
2023-02-11T16:54:20.553Z,98366.16
2023-02-11T16:56:47.601Z,98354.13
2023-02-11T16:59:14.932Z,98357.50
2023-02-11T17:01:43.387Z,98353.88
2023-02-11T17:04:24.180Z,98346.91
2023-02-11T17:06:51.522Z,98327.72
2023-02-11T17:09:24.128Z,98334.09
2023-02-11T17:11:51.471Z,98336.94
2023-02-11T17:14:19.945Z,98329.22
2023-02-11T17:16:48.014Z,98331.69
2023-02-11T17:19:21.103Z,98331.69
2023-02-11T17:21:50.426Z,98300.25
2023-02-11T17:24:18.122Z,98307.69
2023-02-11T17:26:46.305Z,98317.28
2023-02-11T17:29:16.506Z,98296.44
2023-02-11T17:31:43.689Z,98305.22
2023-02-11T17:34:11.602Z,98296.66
2023-02-11T17:36:41.411Z,98280.69
2023-02-11T17:39:08.902Z,98284.69
2023-02-11T17:41:39.872Z,98270.53
2023-02-11T17:44:08.223Z,98258.22
2023-02-11T17:46:36.376Z,98260.84
2023-02-11T17:49:07.609Z,98265.63
2023-02-11T17:51:37.012Z,98242.50
2023-02-11T17:54:11.046Z,98246.13
2023-02-11T17:56:38.341Z,98239.34
2023-02-11T17:59:07.534Z,98242.91
2023-02-11T18:01:36.202Z,98226.84
2023-02-11T18:04:04.735Z,98231.81
2023-02-11T18:06:33.958Z,98231.81
2023-02-11T18:09:04.534Z,98222.34
2023-02-11T18:11:33.490Z,98221.47
2023-02-11T18:14:02.130Z,98204.91
2023-02-11T18:16:30.597Z,98204.38
2023-02-11T18:18:58.696Z,98194.25
2023-02-11T18:21:26.116Z,98190.72
2023-02-11T18:23:53.365Z,98182.91
2023-02-11T18:26:22.064Z,98181.25
2023-02-11T18:28:49.185Z,98165.78
2023-02-11T18:31:17.363Z,98159.41
2023-02-11T18:33:45.036Z,98167.28
2023-02-11T18:36:14.971Z,98155.06
2023-02-11T18:38:44.547Z,98151.13
2023-02-11T18:41:12.218Z,98147.31
2023-02-11T18:43:40.248Z,98151.97
2023-02-11T18:46:13.445Z,98136.44
2023-02-11T18:48:43.514Z,98141.75
2023-02-11T18:51:13.649Z,98142.03
2023-02-11T18:53:40.779Z,98135.34
2023-02-11T18:56:20.545Z,98124.06
2023-02-11T18:58:48.497Z,98125.56
2023-02-11T19:01:24.535Z,98112.81
2023-02-11T19:03:51.927Z,98107.63
2023-02-11T19:06:28.136Z,98100.50
2023-02-11T19:08:59.728Z,98115.72
2023-02-11T19:11:47.148Z,98096.75
2023-02-11T19:14:22.598Z,98104.91
2023-02-11T19:16:51.728Z,98099.34
2023-02-11T19:19:19.245Z,98103.97
2023-02-11T19:21:47.681Z,98089.13
2023-02-11T19:24:18.981Z,98089.63
2023-02-11T19:26:47.198Z,98090.53
2023-02-11T19:29:14.842Z,98074.88
2023-02-11T19:31:42.044Z,98078.00
2023-02-11T19:34:11.325Z,98076.56
2023-02-11T19:36:38.363Z,98076.03
2023-02-11T19:39:06.803Z,98076.28
2023-02-11T19:41:34.579Z,98081.00
2023-02-11T19:44:02.688Z,98081.59
2023-02-11T19:46:32.444Z,98088.88
2023-02-11T19:49:00.781Z,98063.97
2023-02-11T19:51:28.485Z,98071.88
2023-02-11T19:53:55.955Z,98070.88
2023-02-11T19:56:23.265Z,98061.03
2023-02-11T19:58:50.360Z,98061.34
2023-02-11T20:01:22.630Z,98057.22
2023-02-11T20:03:51.073Z,98056.22
2023-02-11T20:06:23.510Z,98054.78
2023-02-11T20:08:59.607Z,98038.59
2023-02-11T20:11:28.878Z,98036.59
2023-02-11T20:13:56.719Z,98038.94
2023-02-11T20:16:40.668Z,98033.72
2023-02-11T20:19:18.125Z,98020.56
2023-02-11T20:21:48.872Z,98012.34
2023-02-11T20:24:17.857Z,98019.63
2023-02-11T20:26:45.954Z,98015.44
2023-02-11T20:29:13.026Z,98015.31
2023-02-11T20:31:40.314Z,98015.00
2023-02-11T20:34:07.561Z,97997.97
2023-02-11T20:36:35.892Z,97999.78
2023-02-11T20:39:05.032Z,97995.56
2023-02-11T20:41:34.944Z,97999.50
2023-02-11T20:44:05.101Z,97985.72
2023-02-11T20:46:34.549Z,97983.38
2023-02-11T20:49:02.135Z,97984.34
2023-02-11T20:51:34.910Z,97983.53
2023-02-11T20:54:01.958Z,97986.63
2023-02-11T20:56:32.409Z,97985.06
2023-02-11T20:59:01.052Z,97986.34
2023-02-11T21:01:43.437Z,97985.06
2023-02-11T21:04:13.661Z,97976.84
2023-02-11T21:06:47.305Z,97990.66
2023-02-11T21:09:17.487Z,97991.34
2023-02-11T21:11:44.815Z,97985.47
2023-02-11T21:14:13.248Z,97984.50
2023-02-11T21:16:40.924Z,97991.06
2023-02-11T21:19:08.014Z,97987.72
2023-02-11T21:21:36.819Z,97987.41
2023-02-11T21:24:04.895Z,97984.47
2023-02-11T21:26:32.352Z,97982.16
2023-02-11T21:28:59.329Z,97981.50
2023-02-11T21:31:30.876Z,97985.09
2023-02-11T21:33:59.745Z,97978.69
2023-02-11T21:36:28.562Z,97969.44
2023-02-11T21:38:55.655Z,97973.56
2023-02-11T21:41:23.300Z,97965.66
2023-02-11T21:43:51.585Z,97971.25
2023-02-11T21:46:19.744Z,97968.03
2023-02-11T21:48:47.324Z,97964.25
2023-02-11T21:51:17.771Z,97968.22
2023-02-11T21:53:44.881Z,97967.38
2023-02-11T21:56:18.035Z,97959.69
2023-02-11T21:58:45.939Z,97966.28
2023-02-11T22:01:18.950Z,97960.69
2023-02-11T22:03:46.541Z,97961.19
2023-02-11T22:06:21.601Z,97958.06
2023-02-11T22:08:50.266Z,97961.50
2023-02-11T22:11:17.580Z,97967.75
2023-02-11T22:13:44.767Z,97960.69
2023-02-11T22:16:14.784Z,97954.28
2023-02-11T22:18:44.684Z,97944.91
2023-02-11T22:21:17.180Z,97961.22
2023-02-11T22:23:44.615Z,97952.63
2023-02-11T22:26:18.246Z,97949.34
2023-02-11T22:28:46.260Z,97951.50
2023-02-11T22:31:16.588Z,97955.44
2023-02-11T22:33:43.686Z,97950.69
2023-02-11T22:36:19.972Z,97953.94
2023-02-11T22:38:47.597Z,97947.69
2023-02-11T22:41:16.375Z,97951.66
2023-02-11T22:43:44.287Z,97954.63
2023-02-11T22:46:14.554Z,97952.31
2023-02-11T22:48:41.913Z,97965.34
2023-02-11T22:51:19.495Z,97962.19
2023-02-11T22:53:51.331Z,97969.25
2023-02-11T22:56:18.589Z,97972.25
2023-02-11T22:58:45.704Z,97974.72
2023-02-11T23:01:13.304Z,97973.88
2023-02-11T23:03:40.705Z,97973.56
2023-02-11T23:06:07.848Z,97971.25
2023-02-11T23:08:35.610Z,97964.97
2023-02-11T23:11:11.998Z,97976.00
2023-02-11T23:13:41.177Z,97971.88
2023-02-11T23:16:14.901Z,97978.66
2023-02-11T23:18:43.685Z,97982.09
2023-02-11T23:21:17.844Z,97967.91
2023-02-11T23:23:45.544Z,97972.84
2023-02-11T23:26:14.976Z,97982.56
2023-02-11T23:28:45.235Z,97977.28
2023-02-11T23:31:20.737Z,97984.84
2023-02-11T23:33:48.797Z,97986.19
2023-02-11T23:36:16.659Z,97993.44
2023-02-11T23:38:44.563Z,97998.38
2023-02-11T23:41:12.228Z,98001.00
2023-02-11T23:43:39.691Z,97996.88
2023-02-11T23:46:08.122Z,98003.47
2023-02-11T23:48:36.706Z,98002.13
2023-02-11T23:51:04.826Z,98006.56
2023-02-11T23:53:32.254Z,98007.59
2023-02-11T23:55:59.409Z,98009.22
2023-02-11T23:58:26.369Z,98010.22
